Arbor, Missouri
Current Conditions -  °F | °C
As of 5:12 AM on Thursday 23 Oct 2014 (Local Time) from KCGI Reporting Station
Haze Haze  
Wind Chill:   Ceiling: Unl
Heat Index:   Visibility: 3mi
Dew Point:   Wind: 3mph
Humidity: 100%   Direction: 110°ESE
Pressure: 30.22"   Gusts: NA
Location:  37.1651°N, 89.623°W
Report Text: KCGI 231012Z AUTO 11003KT 3SM BR FEW002 03/03 A3022 RMK AO2 TSNO
Loading
Personal Weather Stations






























Interactive Weather Map
Tropical Storm Tracking
New forecast layout! Learn more

10-Day Weather Forecast

Advertisements
Track Severe Weather on mobile